La Feria, Mexico

1:08 PM CDT on August 18, 2017 (GMT -0500)
Gustavo Diaz Ordaz, Tamps | | Change Station

Elev 151 ft 26.24 °N, 98.60 °W | Updated 13 seconds ago

Clear
Clear
98.8 °F
Feels Like 108 °F
N
1.0
Wind Variable Wind from ESE
Gusts 12.0 mph

Today
High -- | Low -- °F
--% Chance of Precip.
Yesterday
High -- | Low -- °F
Precip. -- in
Pressure 29.96 in
Visibility 10.0 miles
Clouds Clear
Heat Index 108 °F
Dew Point 72 °F
Humidity 42%
Rainfall 0.00 in
Snow Depth Not available.
7:09 AM 8:08 PM
Waning Crescent, 12% visible
METAR KMFE 181753Z 16009G15KT 110V200 10SM CLR 38/22 A2997 RMK AO2 SLP145 T03780217 10378 20278 58010
Pressure 29.96 in
Visibility 10.0 miles
Clouds Clear
Heat Index 108 °F
Dew Point 72 °F
Humidity 42%
Rainfall 0.00 in
Snow Depth Not available.
7:09 AM 8:08 PM
Waning Crescent, 12% visible
METAR KMFE 181753Z 16009G15KT 110V200 10SM CLR 38/22 A2997 RMK AO2 SLP145 T03780217 10378 20278 58010

Get Severe Weather Alerts

Thanks for signing up!

Be on the lookout for a verification email in your inbox.

You'll start receiving the daily forecast at 6 AM.

×

10-Day Weather Forecast

No radar image for this location.
×

Almanac

Astronomy

Aug. 18, 2017 Rise Set
Actual Time
Civil Twilight
Nautical Twilight
Astronomical Twilight
Moon
Length of Visible Light
Length of Day
Tomorrow will be .
, % of the Moon is Illuminated

Today's Extremes

Country Highs Country Lows

Community

WunderPhotos

Category 6

Welcome to Category 6. This is the collective home for Weather Underground's featured writeups by Dr. Jeff Masters (right), Bob Henson (left), Chris Burt, and other regular contributors.

Nearby

Air Quality

  Air Quality AQ Index Pollutant
Not available.

Snow Depth

Station Depth Elevation

Earthquake Activity

City Distance Mag. Time & Date
Minimum magnitude displayed is 2.5.

Coastal Water Temperatures

Place Temperature

Stations

Nearby Weather Stations

Station Location Temp. Windchill Dew Point Humidity Wind Precip. Elev Updated Type